createdAt,value
2019-04-19T00:00:49.876Z,50.46
2019-04-19T00:03:20.334Z,50.53
2019-04-19T00:05:54.204Z,50.49
2019-04-19T00:08:37.346Z,50.64
2019-04-19T00:11:01.955Z,50.66
2019-04-19T00:13:21.989Z,50.74
2019-04-19T00:15:51.866Z,50.73
2019-04-19T00:18:21.767Z,50.85
2019-04-19T00:21:11.191Z,50.89
2019-04-19T00:23:27.846Z,51.10
2019-04-19T00:25:49.366Z,51.05
2019-04-19T00:28:23.360Z,51.14
2019-04-19T00:30:59.234Z,51.25
2019-04-19T00:33:26.036Z,51.19
2019-04-19T00:35:45.478Z,51.23
2019-04-19T00:38:26.524Z,51.20
2019-04-19T00:41:16.063Z,51.05
2019-04-19T00:44:02.419Z,51.14
2019-04-19T00:46:34.382Z,51.01
2019-04-19T00:49:00.658Z,51.20
2019-04-19T00:51:34.352Z,51.12
2019-04-19T00:53:58.765Z,51.13
2019-04-19T00:56:23.579Z,51.05
2019-04-19T00:58:51.718Z,51.07
2019-04-19T01:01:18.074Z,51.30
2019-04-19T01:03:47.079Z,51.35
2019-04-19T01:06:15.387Z,51.48
2019-04-19T01:08:50.907Z,51.66
2019-04-19T01:11:24.432Z,51.84
2019-04-19T01:13:56.218Z,51.93
2019-04-19T01:16:18.669Z,52.15
2019-04-19T01:18:49.352Z,52.30
2019-04-19T01:21:07.097Z,52.44
2019-04-19T01:23:44.280Z,52.75
2019-04-19T01:26:10.114Z,52.82
2019-04-19T01:28:35.381Z,53.01
2019-04-19T01:31:10.154Z,53.13
2019-04-19T01:33:38.979Z,53.34
2019-04-19T01:36:04.230Z,53.33
2019-04-19T01:38:38.668Z,53.41
2019-04-19T01:41:18.319Z,53.52
2019-04-19T01:43:54.929Z,53.62
2019-04-19T01:46:47.426Z,53.84
2019-04-19T01:49:09.477Z,53.71
2019-04-19T01:51:51.984Z,53.91
2019-04-19T01:54:34.530Z,53.96
2019-04-19T01:56:53.566Z,54.00
2019-04-19T01:59:18.127Z,54.32
2019-04-19T02:01:46.401Z,54.25
2019-04-19T02:04:21.644Z,54.48
2019-04-19T02:06:47.661Z,54.48
2019-04-19T02:09:26.801Z,54.65
2019-04-19T02:11:56.607Z,54.79
2019-04-19T02:14:22.742Z,54.88
2019-04-19T02:16:52.697Z,54.92
2019-04-19T02:19:21.272Z,55.05
2019-04-19T02:21:48.727Z,55.08
2019-04-19T02:24:14.811Z,55.11
2019-04-19T02:26:52.178Z,55.27
2019-04-19T02:29:16.826Z,55.23
2019-04-19T02:32:07.286Z,55.26
2019-04-19T02:34:47.186Z,55.31
2019-04-19T02:37:08.004Z,55.40
2019-04-19T02:39:51.011Z,55.48
2019-04-19T02:42:16.435Z,55.62
2019-04-19T02:44:38.331Z,55.63
2019-04-19T02:49:46.881Z,55.89
2019-04-19T02:52:09.943Z,56.05
2019-04-19T02:57:39.636Z,56.25
2019-04-19T03:00:30.813Z,56.31
2019-04-19T03:03:06.046Z,56.39
2019-04-19T03:05:34.609Z,56.50
2019-04-19T03:07:42.571Z,56.63
2019-04-19T03:10:17.448Z,56.76
2019-04-19T03:13:00.146Z,56.78
2019-04-19T03:15:24.809Z,56.91
2019-04-19T03:17:57.520Z,57.23
2019-04-19T03:20:21.895Z,57.03
2019-04-19T03:22:54.771Z,57.25
2019-04-19T03:25:18.288Z,57.31
2019-04-19T03:27:49.717Z,57.56
2019-04-19T03:30:23.162Z,57.37
2019-04-19T03:33:11.059Z,57.58
2019-04-19T03:35:14.984Z,57.73
2019-04-19T03:37:57.408Z,57.91
2019-04-19T03:40:23.338Z,58.03
2019-04-19T03:43:10.442Z,58.03
2019-04-19T03:45:43.671Z,58.10
2019-04-19T03:48:12.003Z,58.28
2019-04-19T03:50:37.735Z,58.59
2019-04-19T03:53:09.171Z,58.70
2019-04-19T03:55:39.108Z,58.81
2019-04-19T03:57:54.990Z,59.02
2019-04-19T04:00:17.401Z,59.18
2019-04-19T04:02:48.056Z,59.51
2019-04-19T04:05:17.448Z,59.27
2019-04-19T04:07:55.283Z,59.21
2019-04-19T04:10:37.705Z,59.43
2019-04-19T04:13:28.706Z,59.69
2019-04-19T04:16:14.082Z,59.96
2019-04-19T04:18:27.935Z,60.29
2019-04-19T04:20:59.031Z,60.38
2019-04-19T04:23:32.284Z,60.69
2019-04-19T04:26:02.899Z,60.71
2019-04-19T04:28:41.593Z,60.82
2019-04-19T04:31:05.832Z,60.58
2019-04-19T04:33:32.198Z,60.52
2019-04-19T04:36:13.097Z,60.41
2019-04-19T04:38:29.849Z,60.42
2019-04-19T04:40:50.717Z,60.61
2019-04-19T04:43:31.387Z,60.41
2019-04-19T04:46:32.508Z,60.41
2019-04-19T04:48:49.760Z,60.34
2019-04-19T04:51:23.431Z,60.27
2019-04-19T04:53:47.081Z,60.15
2019-04-19T04:56:19.444Z,60.06
2019-04-19T04:58:49.584Z,60.08
2019-04-19T05:01:32.421Z,59.85
2019-04-19T05:04:02.026Z,59.77
2019-04-19T05:06:32.436Z,59.86
2019-04-19T05:08:58.497Z,59.62
2019-04-19T05:11:30.457Z,59.46
2019-04-19T05:14:03.016Z,59.42
2019-04-19T05:16:53.594Z,59.22
2019-04-19T05:18:59.451Z,59.03
2019-04-19T05:21:27.189Z,58.94
2019-04-19T05:24:04.974Z,58.78
2019-04-19T05:26:52.489Z,58.66
2019-04-19T05:28:57.221Z,58.55
2019-04-19T05:31:11.221Z,58.29
2019-04-19T05:33:51.461Z,57.93
2019-04-19T05:36:27.603Z,58.05
2019-04-19T05:39:12.452Z,57.80
2019-04-19T05:41:56.443Z,57.82
2019-04-19T05:45:11.919Z,57.57
2019-04-19T05:47:18.372Z,57.18
2019-04-19T05:49:51.522Z,57.21
2019-04-19T05:52:27.282Z,57.04
2019-04-19T05:54:32.099Z,57.29
2019-04-19T05:57:17.721Z,57.25
2019-04-19T05:59:42.598Z,57.11
2019-04-19T06:02:13.554Z,56.63
2019-04-19T06:04:58.209Z,56.44
2019-04-19T06:07:18.864Z,56.25
2019-04-19T06:09:26.937Z,56.05
2019-04-19T06:11:56.948Z,55.78
2019-04-19T06:14:50.780Z,55.23
2019-04-19T06:17:30.501Z,55.33
2019-04-19T06:19:56.817Z,54.87
2019-04-19T06:22:37.168Z,54.50
2019-04-19T06:25:00.704Z,54.07
2019-04-19T06:27:43.877Z,53.06
2019-04-19T06:30:11.797Z,52.14
2019-04-19T06:32:39.025Z,52.04
2019-04-19T06:35:00.273Z,51.50
2019-04-19T06:37:18.037Z,50.90
2019-04-19T06:39:42.120Z,50.58
2019-04-19T06:42:13.671Z,50.33
2019-04-19T06:45:02.914Z,50.24
2019-04-19T06:47:19.683Z,49.91
2019-04-19T06:49:40.652Z,49.79
2019-04-19T06:52:14.984Z,49.71
2019-04-19T06:54:41.582Z,49.85
2019-04-19T06:57:16.498Z,49.79
2019-04-19T06:59:52.098Z,49.50
2019-04-19T07:02:05.642Z,49.91
2019-04-19T07:04:46.127Z,53.09
2019-04-19T07:07:21.870Z,52.81
2019-04-19T07:10:01.078Z,50.45
2019-04-19T07:12:23.993Z,48.88
2019-04-19T07:14:34.945Z,47.24
2019-04-19T07:17:23.229Z,46.94
2019-04-19T07:19:52.887Z,46.44
2019-04-19T07:22:14.399Z,46.50
2019-04-19T07:24:51.221Z,45.97
2019-04-19T07:27:15.400Z,46.25
2019-04-19T07:29:27.651Z,46.18
2019-04-19T07:31:57.717Z,46.36
2019-04-19T07:34:44.762Z,46.21
2019-04-19T07:37:14.514Z,45.55
2019-04-19T07:39:50.953Z,45.16
2019-04-19T07:42:16.926Z,44.83
2019-04-19T07:44:48.011Z,44.78
2019-04-19T07:47:31.839Z,44.64
2019-04-19T07:49:57.299Z,44.22
2019-04-19T07:52:21.445Z,43.29
2019-04-19T07:54:47.876Z,42.96
2019-04-19T07:57:52.001Z,42.39
2019-04-19T08:00:13.940Z,42.10
2019-04-19T08:05:11.406Z,39.97
2019-04-19T08:07:56.853Z,39.27
2019-04-19T08:10:24.713Z,38.04
2019-04-19T08:16:01.357Z,37.31
2019-04-19T08:27:30.971Z,35.26
2019-04-19T08:29:47.346Z,35.26
2019-04-19T08:32:06.917Z,35.42
2019-04-19T08:34:35.052Z,34.76
2019-04-19T08:37:10.110Z,34.37
2019-04-19T08:39:51.032Z,34.55
2019-04-19T08:42:22.421Z,33.61
2019-04-19T08:44:43.085Z,32.89
2019-04-19T08:47:34.597Z,32.14
2019-04-19T08:50:13.749Z,31.05
2019-04-19T08:52:41.472Z,30.63
2019-04-19T08:55:33.809Z,29.83
2019-04-19T08:57:39.568Z,29.73
2019-04-19T09:00:52.184Z,29.87
2019-04-19T09:02:48.781Z,30.56
2019-04-19T09:05:22.390Z,30.93
2019-04-19T09:08:03.230Z,29.97
2019-04-19T09:10:31.883Z,30.68
2019-04-19T09:13:14.204Z,30.81
2019-04-19T09:15:21.569Z,30.00
2019-04-19T09:20:31.732Z,28.47
2019-04-19T09:23:06.539Z,28.34
2019-04-19T09:25:44.012Z,27.74
2019-04-19T09:28:30.842Z,26.89
2019-04-19T09:30:52.377Z,27.37
2019-04-19T09:33:09.963Z,27.08
2019-04-19T09:35:39.912Z,27.01
2019-04-19T09:38:13.912Z,26.27
2019-04-19T09:40:39.249Z,26.16
2019-04-19T09:43:18.324Z,25.83
2019-04-19T09:45:29.777Z,25.80
2019-04-19T09:47:59.088Z,26.07
2019-04-19T09:50:43.311Z,26.47
2019-04-19T09:53:29.151Z,26.12
2019-04-19T09:55:49.705Z,25.98
2019-04-19T09:58:16.922Z,26.94
2019-04-19T10:00:28.936Z,26.53
2019-04-19T10:03:00.542Z,26.54
2019-04-19T10:05:24.328Z,26.36
2019-04-19T10:07:55.090Z,26.23
2019-04-19T10:10:22.919Z,26.27
2019-04-19T10:12:52.137Z,25.83
2019-04-19T10:15:46.650Z,25.67
2019-04-19T10:18:16.323Z,25.35
2019-04-19T10:21:04.911Z,23.99
2019-04-19T10:23:33.703Z,23.43
2019-04-19T10:26:07.118Z,24.26
2019-04-19T10:28:32.274Z,24.93
2019-04-19T10:31:07.804Z,23.87
2019-04-19T10:33:46.578Z,23.93
2019-04-19T10:36:06.658Z,25.50
2019-04-19T10:38:35.923Z,25.49
2019-04-19T10:41:05.158Z,25.14
2019-04-19T10:43:34.974Z,24.58
2019-04-19T10:46:04.822Z,24.57
2019-04-19T10:48:33.039Z,23.95
2019-04-19T10:51:12.352Z,21.72
2019-04-19T10:53:42.091Z,22.47
2019-04-19T10:56:18.686Z,23.50
2019-04-19T10:58:48.986Z,22.94
2019-04-19T11:01:17.174Z,21.97
2019-04-19T11:03:46.961Z,22.21
2019-04-19T11:06:16.810Z,21.78
2019-04-19T11:08:45.226Z,23.04
2019-04-19T11:11:14.436Z,22.44
2019-04-19T11:13:43.798Z,22.66
2019-04-19T11:16:13.020Z,21.62
2019-04-19T11:18:43.511Z,21.01
2019-04-19T11:21:11.685Z,21.03
2019-04-19T11:23:41.927Z,21.22
2019-04-19T11:26:10.383Z,21.03
2019-04-19T11:28:40.927Z,21.89
2019-04-19T11:31:33.983Z,21.20
2019-04-19T11:34:03.019Z,21.26
2019-04-19T11:36:33.280Z,20.33
2019-04-19T11:39:01.549Z,20.01
2019-04-19T11:41:31.277Z,19.31
2019-04-19T11:44:06.202Z,20.46
2019-04-19T11:46:29.865Z,20.38
2019-04-19T11:48:59.708Z,21.38
2019-04-19T11:51:27.909Z,20.82
2019-04-19T11:53:57.113Z,19.73
2019-04-19T11:56:50.585Z,18.59
2019-04-19T11:59:40.647Z,19.34
2019-04-19T12:02:06.074Z,20.32
2019-04-19T12:04:34.906Z,19.50
2019-04-19T12:07:04.132Z,19.26
2019-04-19T12:09:34.448Z,19.07
2019-04-19T12:12:03.204Z,19.14
2019-04-19T12:14:32.739Z,18.25
2019-04-19T12:17:02.746Z,17.19
2019-04-19T12:19:40.177Z,18.25
2019-04-19T12:22:00.979Z,17.17
2019-04-19T12:24:29.018Z,16.99
2019-04-19T12:26:58.232Z,16.41
2019-04-19T12:29:35.315Z,16.68
2019-04-19T12:31:56.703Z,16.89
2019-04-19T12:34:25.932Z,17.28
2019-04-19T12:36:55.193Z,17.68
2019-04-19T12:39:25.150Z,17.65
2019-04-19T12:41:53.741Z,17.83
2019-04-19T12:44:23.023Z,17.02
2019-04-19T12:46:52.956Z,16.80
2019-04-19T12:49:22.691Z,16.91
2019-04-19T12:51:51.983Z,16.26
2019-04-19T12:54:20.361Z,16.16
2019-04-19T12:56:49.816Z,16.20
2019-04-19T12:59:21.282Z,16.71
2019-04-19T13:01:59.794Z,16.99
2019-04-19T13:04:50.612Z,17.77
2019-04-19T13:07:18.650Z,16.98
2019-04-19T13:09:48.884Z,17.01
2019-04-19T13:12:17.075Z,15.56
2019-04-19T13:14:46.358Z,16.50
2019-04-19T13:17:16.044Z,16.19
2019-04-19T13:19:45.129Z,16.23
2019-04-19T13:22:14.523Z,15.44
2019-04-19T13:24:44.678Z,16.49
2019-04-19T13:27:12.780Z,15.45
2019-04-19T13:29:42.054Z,15.71
2019-04-19T13:32:11.600Z,15.43
2019-04-19T13:34:41.165Z,15.23
2019-04-19T13:37:27.817Z,15.99
2019-04-19T13:40:08.164Z,15.65
2019-04-19T13:42:37.335Z,15.06
2019-04-19T13:45:13.931Z,15.63
2019-04-19T13:47:36.498Z,16.58
2019-04-19T13:50:19.302Z,15.70
2019-04-19T13:52:34.758Z,15.17
2019-04-19T13:55:04.278Z,16.25
2019-04-19T13:57:33.543Z,15.10
2019-04-19T14:00:06.447Z,15.24
2019-04-19T14:02:32.102Z,16.14
2019-04-19T14:05:01.915Z,16.73
2019-04-19T14:07:30.839Z,17.31
2019-04-19T14:10:01.080Z,17.40
2019-04-19T14:12:29.149Z,17.40
2019-04-19T14:14:58.942Z,16.46
2019-04-19T14:17:27.505Z,16.68
2019-04-19T14:19:57.085Z,16.97
2019-04-19T14:22:25.852Z,17.06
2019-04-19T14:24:55.923Z,17.03
2019-04-19T14:27:24.348Z,17.08
2019-04-19T14:29:53.690Z,16.81
2019-04-19T14:32:23.283Z,16.80
2019-04-19T14:34:52.142Z,16.91
2019-04-19T14:37:22.445Z,16.01
2019-04-19T14:39:50.544Z,15.98
2019-04-19T14:42:19.851Z,17.01
2019-04-19T14:44:50.057Z,16.21
2019-04-19T14:47:19.005Z,16.15
2019-04-19T14:49:49.031Z,16.31
2019-04-19T14:52:18.154Z,16.98
2019-04-19T14:54:46.360Z,16.63
2019-04-19T14:57:15.424Z,16.67
2019-04-19T14:59:45.086Z,16.71
2019-04-19T15:02:16.740Z,16.80
2019-04-19T15:05:07.698Z,17.40
2019-04-19T15:07:36.674Z,17.49
2019-04-19T15:10:06.039Z,16.83
2019-04-19T15:12:36.464Z,16.16
2019-04-19T15:15:06.178Z,17.26
2019-04-19T15:17:35.295Z,17.23
2019-04-19T15:20:03.718Z,17.26
2019-04-19T15:22:32.938Z,17.71
2019-04-19T15:25:02.531Z,18.34
2019-04-19T15:27:32.767Z,18.42
2019-04-19T15:30:01.096Z,17.95
2019-04-19T15:32:30.595Z,18.43
2019-04-19T15:34:59.257Z,18.60
2019-04-19T15:37:29.645Z,18.66
2019-04-19T15:39:58.070Z,18.23
2019-04-19T15:42:28.878Z,17.92
2019-04-19T15:44:57.026Z,18.69
2019-04-19T15:47:26.544Z,17.76
2019-04-19T15:49:55.849Z,18.09
2019-04-19T15:52:26.138Z,17.30
2019-04-19T15:54:54.286Z,17.82
2019-04-19T15:57:23.875Z,18.12
2019-04-19T15:59:53.784Z,18.33
2019-04-19T16:02:33.831Z,18.27
2019-04-19T16:05:24.176Z,17.79
2019-04-19T16:08:12.136Z,17.91
2019-04-19T16:10:54.886Z,17.44
2019-04-19T16:13:23.652Z,17.18
2019-04-19T16:15:52.173Z,16.83
2019-04-19T16:18:22.228Z,16.92
2019-04-19T16:20:51.244Z,16.93
2019-04-19T16:23:20.597Z,16.86
2019-04-19T16:25:49.786Z,16.54
2019-04-19T16:28:19.297Z,16.45
2019-04-19T16:30:48.598Z,16.60
2019-04-19T16:33:17.832Z,16.33
2019-04-19T16:35:46.618Z,16.35
2019-04-19T16:38:16.380Z,16.48
2019-04-19T16:40:46.237Z,16.61
2019-04-19T16:43:15.418Z,16.50
2019-04-19T16:45:44.096Z,16.39
2019-04-19T16:48:13.024Z,16.35
2019-04-19T16:50:42.905Z,16.34
2019-04-19T16:53:11.364Z,16.24
2019-04-19T16:55:41.515Z,16.25
2019-04-19T16:58:10.537Z,16.63
2019-04-19T17:00:41.091Z,16.56
2019-04-19T17:03:11.532Z,16.81
2019-04-19T17:05:39.708Z,16.86
2019-04-19T17:08:09.383Z,17.19
2019-04-19T17:10:38.708Z,17.43
2019-04-19T17:13:08.621Z,17.89
2019-04-19T17:16:05.156Z,18.43
2019-04-19T17:18:52.717Z,19.37
2019-04-19T17:21:22.174Z,20.47
2019-04-19T17:23:51.443Z,21.19
2019-04-19T17:26:20.714Z,21.93
2019-04-19T17:28:50.814Z,22.83
2019-04-19T17:31:20.276Z,23.76
2019-04-19T17:33:48.524Z,24.28
2019-04-19T17:36:17.910Z,24.93
2019-04-19T17:38:50.652Z,25.53
2019-04-19T17:41:16.614Z,25.96
2019-04-19T17:43:45.743Z,26.42
2019-04-19T17:46:14.796Z,26.73
2019-04-19T17:48:44.430Z,26.98
2019-04-19T17:51:13.807Z,27.44
2019-04-19T17:53:46.987Z,27.58
2019-04-19T17:56:13.091Z,28.16
2019-04-19T17:58:42.333Z,28.53
2019-04-19T18:01:10.433Z,28.86
2019-04-19T18:03:40.696Z,29.39
2019-04-19T18:06:09.886Z,29.74
2019-04-19T18:08:39.276Z,30.08
2019-04-19T18:11:07.521Z,30.50
2019-04-19T18:13:37.271Z,30.98
2019-04-19T18:16:06.806Z,31.21
2019-04-19T18:18:41.262Z,31.48
2019-04-19T18:21:05.580Z,31.83
2019-04-19T18:23:43.050Z,32.46
2019-04-19T18:26:03.348Z,32.74
2019-04-19T18:28:38.291Z,33.12
2019-04-19T18:31:02.459Z,33.31
2019-04-19T18:33:33.667Z,33.62
2019-04-19T18:36:08.246Z,33.76
2019-04-19T18:38:32.845Z,34.01
2019-04-19T18:41:01.316Z,34.31
2019-04-19T18:43:38.655Z,34.70
2019-04-19T18:46:00.378Z,35.10
2019-04-19T18:48:29.712Z,35.52
2019-04-19T18:51:00.120Z,35.54
2019-04-19T18:53:37.816Z,35.72
2019-04-19T18:55:58.838Z,36.11
2019-04-19T18:58:30.898Z,36.41
2019-04-19T19:00:57.108Z,36.48
2019-04-19T19:03:35.157Z,36.84
2019-04-19T19:06:00.557Z,36.88
2019-04-19T19:08:29.370Z,37.30
2019-04-19T19:10:55.526Z,37.22
2019-04-19T19:13:28.830Z,37.51
2019-04-19T19:15:55.895Z,37.80
2019-04-19T19:18:27.944Z,38.31
2019-04-19T19:20:56.550Z,38.65
2019-04-19T19:23:42.197Z,38.68
2019-04-19T19:26:03.172Z,39.16
2019-04-19T19:28:21.609Z,39.28
2019-04-19T19:30:49.034Z,39.46
2019-04-19T19:33:20.517Z,39.76
2019-04-19T19:35:54.911Z,39.99
2019-04-19T19:38:21.944Z,40.18
2019-04-19T19:40:59.842Z,40.30
2019-04-19T19:43:33.947Z,40.37
2019-04-19T19:45:55.737Z,40.37
2019-04-19T19:48:36.029Z,40.75
2019-04-19T19:51:04.906Z,41.07
2019-04-19T19:56:11.374Z,40.96
2019-04-19T19:58:22.187Z,40.90
2019-04-19T20:00:55.546Z,40.90
2019-04-19T20:03:18.415Z,40.82
2019-04-19T20:05:40.841Z,40.77
2019-04-19T20:08:08.283Z,40.73
2019-04-19T20:10:43.304Z,40.75
2019-04-19T20:13:11.003Z,40.55
2019-04-19T20:15:39.590Z,40.37
2019-04-19T20:18:06.494Z,40.12
2019-04-19T20:20:38.929Z,40.04
2019-04-19T20:23:04.425Z,40.05
2019-04-19T20:25:41.911Z,39.99
2019-04-19T20:28:02.972Z,39.74
2019-04-19T20:30:39.146Z,39.75
2019-04-19T20:33:02.677Z,39.91
2019-04-19T20:35:30.034Z,39.75
2019-04-19T20:38:03.416Z,39.62
2019-04-19T20:40:30.615Z,39.66
2019-04-19T20:43:23.548Z,39.75
2019-04-19T20:45:36.865Z,40.16
2019-04-19T20:48:07.071Z,40.05
2019-04-19T20:50:39.856Z,40.33
2019-04-19T20:53:08.632Z,40.42
2019-04-19T20:55:40.160Z,40.39
2019-04-19T20:58:09.340Z,40.34
2019-04-19T21:00:50.438Z,40.42
2019-04-19T21:03:26.596Z,41.00
2019-04-19T21:05:49.724Z,40.58
2019-04-19T21:08:20.883Z,40.56
2019-04-19T21:10:54.552Z,40.83
2019-04-19T21:13:18.852Z,40.97
2019-04-19T21:15:45.092Z,40.88
2019-04-19T21:18:20.012Z,40.90
2019-04-19T21:20:44.612Z,40.95
2019-04-19T21:23:18.447Z,41.08
2019-04-19T21:25:49.432Z,40.83
2019-04-19T21:28:11.053Z,40.88
2019-04-19T21:30:47.045Z,40.84
2019-04-19T21:33:13.389Z,40.92
2019-04-19T21:35:47.602Z,41.13
2019-04-19T21:38:11.786Z,41.40
2019-04-19T21:40:40.137Z,41.58
2019-04-19T21:43:08.265Z,41.80
2019-04-19T21:45:41.764Z,41.88
2019-04-19T21:48:05.471Z,42.32
2019-04-19T21:50:39.457Z,42.19
2019-04-19T21:53:08.829Z,42.37
2019-04-19T21:55:40.177Z,42.40
2019-04-19T21:58:08.923Z,42.47
2019-04-19T22:00:58.768Z,42.65
2019-04-19T22:03:23.192Z,43.03
2019-04-19T22:05:49.351Z,43.18
2019-04-19T22:08:23.428Z,43.53
2019-04-19T22:10:50.047Z,43.56
2019-04-19T22:13:16.742Z,43.72
2019-04-19T22:15:51.103Z,43.81
2019-04-19T22:18:15.285Z,44.13
2019-04-19T22:20:51.519Z,44.13
2019-04-19T22:23:14.817Z,44.22
2019-04-19T22:25:51.319Z,44.38
2019-04-19T22:28:12.284Z,44.35
2019-04-19T22:30:45.478Z,44.06
2019-04-19T22:33:12.552Z,44.04
2019-04-19T22:35:41.620Z,44.02
2019-04-19T22:38:14.165Z,43.96
2019-04-19T22:40:38.965Z,43.83
2019-04-19T22:43:11.549Z,43.89
2019-04-19T22:45:38.903Z,43.87
2019-04-19T22:48:14.039Z,43.94
2019-04-19T22:50:40.050Z,43.91
2019-04-19T22:53:05.467Z,44.05
2019-04-19T22:55:45.196Z,44.05
2019-04-19T22:58:04.660Z,44.08
2019-04-19T23:00:38.555Z,44.04
2019-04-19T23:03:25.097Z,43.79
2019-04-19T23:05:47.020Z,43.70
2019-04-19T23:08:19.315Z,43.73
2019-04-19T23:10:52.461Z,43.73
2019-04-19T23:13:15.474Z,43.90
2019-04-19T23:15:43.813Z,43.95
2019-04-19T23:18:18.608Z,44.03
2019-04-19T23:20:43.271Z,44.02
2019-04-19T23:23:20.349Z,44.09
2019-04-19T23:25:44.148Z,44.21
2019-04-19T23:28:19.918Z,44.07
2019-04-19T23:30:39.110Z,44.14
2019-04-19T23:33:13.330Z,44.21
2019-04-19T23:35:40.026Z,44.33
2019-04-19T23:38:07.413Z,44.48
2019-04-19T23:40:39.057Z,44.48
2019-04-19T23:43:06.111Z,44.66
2019-04-19T23:45:39.061Z,44.87
2019-04-19T23:48:04.591Z,44.81
2019-04-19T23:50:37.933Z,45.00
2019-04-19T23:53:04.094Z,45.16
2019-04-19T23:55:32.758Z,45.37
2019-04-19T23:58:01.431Z,45.32
